Grapevine, CA Past Weather

Last 30 Days

 
High: 34ºf @2:13 AM    Low: 33ºf @1:13 AM     Approx. Precipitation / Rain Total: in.
Time (PST)Temp. (ºf)Humidity (%)Dew Point (ºf)Barometer (inHG)Wind Speed (mph)Wind DirectionWind Gust (mph)1hr. Precip / Rain Total (in.)Snow Depth
2:13 AM349632.98-41.71nne64.3--
1:13 AM339331.2-46.92nne61.7--
12:13 AM3410034-50.4nne66.04--
High: 34ºf @9:13 PM    Low: 28ºf @4:13 AM     Approx. Precipitation / Rain Total: in.
Time (PST)Temp. (ºf)Humidity (%)Dew Point (ºf)Barometer (inHG)Wind Speed (mph)Wind DirectionWind Gust (mph)1hr. Precip / Rain Total (in.)Snow Depth
11:13 PM3310033-38.23nne51.27--
10:13 PM3310033-34.76nne55.61--
9:13 PM3410034-39.1n52.14--
7:13 PM3310033-48.66n60.83--
6:13 PM3410034-49.53n58.22--
5:13 PM3310033-45.19n54.75--
4:13 PM3210032-37.37n56.48--
3:13 PM3310033-35.63nne50.4--
2:13 PM3310033-32.15nne51.27--
1:13 PM3310033-31.28n52.14--
12:13 PM3210032-40.84n67.78--
11:13 AM3110031-57.35n70.39--
10:13 AM3210032-53.88nne64.3--
9:13 AM3010030-43.45n63.44--
8:13 AM3010030-50.4nne67.78--
7:13 AM2910029-45.19n67.78--
6:13 AM2810028-49.53n64.3--
5:13 AM2810028-45.19n56.48--
4:13 AM2810028-36.5n47.79--
3:13 AM2810028-35.63n45.19--
2:13 AM299327.23-23.46n38.23--
1:13 AM297221.12-29.55nne39.1--
High: 31ºf @12:13 PM    Low: 23ºf @6:13 AM     Approx. Precipitation / Rain Total: in.
Time (PST)Temp. (ºf)Humidity (%)Dew Point (ºf)Barometer (inHG)Wind Speed (mph)Wind DirectionWind Gust (mph)1hr. Precip / Rain Total (in.)Snow Depth
10:13 PM297020.46-20.86n27.81--
9:13 PM297020.46-19.12n25.2--
8:13 PM298625.35-17.38n21.72--
7:13 PM298825.9-13.03n18.25--
6:13 PM299126.71-12.17n15.64--
5:13 PM2910029-5.21n7.82--
4:13 PM3010030-2.61nne7.82--
12:13 PM319529.74-4.34sse7.82--
11:13 AM2910029-4.34ese6.08--
9:13 AM2610026-3.48ssw6.08--
8:13 AM2410024-3.48ssw5.21--
7:13 AM2410024-4.34ssw6.95--
6:13 AM2310023-5.21ssw6.95--
5:13 AM2310023-5.21ssw8.69--
4:13 AM2310023-5.21ssw9.56--
3:13 AM2410024-6.08ssw9.56--
2:13 AM2410024-5.21ssw9.56--
1:13 AM2410024-4.34ssw8.69--
12:13 AM2410024-5.21ssw9.56--
High: 31ºf @12:13 AM    Low: 24ºf @7:13 AM     Approx. Precipitation / Rain Total: in.
Time (PST)Temp. (ºf)Humidity (%)Dew Point (ºf)Barometer (inHG)Wind Speed (mph)Wind DirectionWind Gust (mph)1hr. Precip / Rain Total (in.)Snow Depth
11:13 PM2510025-3.48sw8.69--
10:13 PM2510025-5.21ssw10.43--
9:13 PM2510025-6.95ssw11.3--
8:13 PM2510025-7.82ssw12.17--
6:13 PM2510025-8.69ssw13.9--
4:13 PM2610026-10.43ssw17.38--
12:13 PM2510025-11.3ssw16.51--
11:13 AM2710027-5.21sse12.17--
10:13 AM2610026-5.21ese17.38--
7:13 AM2410024-8.69ssw19.12--
4:13 AM2510025-6.95nnw17.38--
12:13 AM3110031-5.21se14.77--
High: 39ºf @11:13 AM    Low: 28ºf @5:13 AM     Approx. Precipitation / Rain Total: in.
Time (PST)Temp. (ºf)Humidity (%)Dew Point (ºf)Barometer (inHG)Wind Speed (mph)Wind DirectionWind Gust (mph)1hr. Precip / Rain Total (in.)Snow Depth
11:13 PM3110031-6.08se10.43--
10:13 PM3110031-5.21ssw7.82--
8:13 PM3210032-3.48s6.08--
6:13 PM3210032-2.61e6.95--
5:13 PM3310033-4.34sw7.82--
3:13 PM359232.92-6.08s11.3--
2:13 PM379134.62-6.08ssw9.56--
11:13 AM398835.75-3.48ssw6.95--
10:13 AM3610036-5.21ssw8.69--
8:13 AM3210032-4.34sw8.69--
7:13 AM2910029-5.21ssw7.82--
6:13 AM2810028-4.34s6.95--
5:13 AM2810028-2.61s5.21--
4:13 AM2910029-3.48s6.95--
3:13 AM3010030-3.48sse5.21--
1:13 AM3010030-3.48s6.95--
12:13 AM3110031-4.34ssw6.95--
High: 32ºf @12:13 PM    Low: 29ºf @5:13 AM     Approx. Precipitation / Rain Total: in.
Time (PST)Temp. (ºf)Humidity (%)Dew Point (ºf)Barometer (inHG)Wind Speed (mph)Wind DirectionWind Gust (mph)1hr. Precip / Rain Total (in.)Snow Depth
10:13 PM3010030-3.48s7.82--
9:13 PM3010030-3.48s7.82--
7:13 PM3010030-4.34s7.82--
6:13 PM3010030-6.08ssw8.69--
5:13 PM3010030-3.48s8.69--
2:13 PM3210032-4.34ssw8.69--
12:13 PM3210032-3.48sw9.56--
11:13 AM3210032-4.34ssw6.08--
10:13 AM3210032-2.61nne6.08--
7:13 AM3010030-3.48se6.08--
6:13 AM3010030-2.61ese4.34--
5:13 AM2910029---4.34--
4:13 AM3010030-1.74s6.08--
3:13 AM3010030-1.74se4.34--
2:13 AM3110031-1.74wnw3.48--
1:13 AM3110031-0.87s5.21--
12:13 AM3110031-3.48sw5.21--
High: 46ºf @12:13 PM    Low: 30ºf @11:13 PM     Approx. Precipitation / Rain Total: in.
Time (PST)Temp. (ºf)Humidity (%)Dew Point (ºf)Barometer (inHG)Wind Speed (mph)Wind DirectionWind Gust (mph)1hr. Precip / Rain Total (in.)Snow Depth
11:13 PM3010030-3.48sw4.34--
10:13 PM3110031-2.61e7.82--
9:13 PM3110031-1.74ssw10.43--
8:13 PM3110031-5.21sse7.82--
7:13 PM3310033-4.34s11.3--
6:13 PM3410034-6.95sse13.9--
5:13 PM3510035-8.69ssw12.17--
4:13 PM379535.7-4.34s10.43--
3:13 PM415023.8-6.95ssw9.56--
2:13 PM425024.72-6.08s11.3--
1:13 PM414119.12-7.82ssw12.17--
12:13 PM465128.9-4.34ssw15.64--
9:13 AM405625.59-6.08n9.56--
8:13 AM415023.8-4.34n9.56--
7:13 AM405826.43-6.08-15.64--
5:13 AM424321.14-11.3nne17.38--
4:13 AM423617-6.95nne9.56--
3:13 AM443820.04-3.48nnw5.21--
2:13 AM424421.69-0.87nnw3.48--
1:13 AM433819.15-1.74wnw5.21--
12:13 AM443618.78-1.74ese2.61--
High: 57ºf @1:13 PM    Low: 42ºf @12:13 AM     Approx. Precipitation / Rain Total: in.
Time (PST)Temp. (ºf)Humidity (%)Dew Point (ºf)Barometer (inHG)Wind Speed (mph)Wind DirectionWind Gust (mph)1hr. Precip / Rain Total (in.)Snow Depth
11:13 PM463419.22-3.48sse5.21--
10:13 PM453418.34-3.48sse5.21--
9:13 PM463318.53-3.48s5.21--
8:13 PM463419.22-2.61s4.34--
7:13 PM473319.41-4.34s6.08--
6:13 PM473319.41-3.48s5.21--
4:13 PM513524.32-4.34sse9.56--
3:13 PM523122.31-4.34s8.69--
2:13 PM552923.34-5.21s10.43--
1:13 PM572521.54-5.21s8.69--
12:13 PM573428.91-5.21sse8.69--
11:13 AM554332.92-4.34sse6.95--
9:13 AM514530.41-4.34n6.95--
8:13 AM495433.09-4.34n6.95--
6:13 AM445830.18-4.34n6.95--
4:13 AM445327.98-1.74ene4.34--
2:13 AM435527.95-4.34s6.95--
12:13 AM425627.46-2.61nnw4.34--
High: 51ºf @3:13 PM    Low: 37ºf @1:13 AM     Approx. Precipitation / Rain Total: in.
Time (PST)Temp. (ºf)Humidity (%)Dew Point (ºf)Barometer (inHG)Wind Speed (mph)Wind DirectionWind Gust (mph)1hr. Precip / Rain Total (in.)Snow Depth
11:13 PM445327.98-3.48ssw4.34--
10:13 PM435628.39-0.87ene4.34--
9:13 PM435829.25-2.61n7.82--
7:13 PM445327.98-11.3nnw13.9--
6:13 PM454927-7.82nnw13.03--
4:13 PM504227.82-13.03nnw21.72--
3:13 PM513826.3-15.64nnw24.33--
1:13 PM504026.64-18.25nnw27.81--
11:13 AM474124.53-17.38nnw24.33--
10:13 AM474828.34-16.51nnw27.81--
9:13 AM444222.4-16.51nnw23.46--
8:13 AM424220.59-12.17n16.51--
7:13 AM394318.42-13.03nnw16.51--
6:13 AM384116.42-12.17nnw20.86--
5:13 AM403816.47-15.64nnw22.59--
4:13 AM404017.65-14.77nnw19.99--
3:13 AM374216.07-9.56nnw12.17--
2:13 AM384518.57-6.95nnw16.51--
1:13 AM375221.03-13.03nnw22.59--
12:13 AM394921.48-13.9nw28.68--
High: 49ºf @12:13 AM    Low: 35ºf @7:13 AM     Approx. Precipitation / Rain Total: in.
Time (PST)Temp. (ºf)Humidity (%)Dew Point (ºf)Barometer (inHG)Wind Speed (mph)Wind DirectionWind Gust (mph)1hr. Precip / Rain Total (in.)Snow Depth
11:13 PM366425.02-15.64nnw21.72--
10:13 PM384920.56-16.51nnw28.68--
9:13 PM394318.42-17.38nnw29.55--
8:13 PM403514.58-19.12nw30.41--
7:13 PM413515.47-16.51nw28.68--
6:13 PM423415.69-14.77nnw33.89--
5:13 PM423214.3-19.99nnw35.63--
4:13 PM432912.94-25.2nnw42.58--
3:13 PM442813.02-26.07nw39.1--
2:13 PM442712.19-22.59nw42.58--
1:13 PM432610.49-29.55nw45.19--
12:13 PM40267.92-27.81nnw50.4--
11:13 AM412911.21-33.02nnw46.92--
10:13 AM412911.21-32.15nnw53.88--
9:13 AM373310.6-31.28nnw54.75--
8:13 AM36307.61-36.5nnw53.01--
7:13 AM35317.46-31.28nnw46.06--
4:13 AM373411.27-37.37n50.4--
3:13 AM402910.34-33.02n45.19--
1:13 AM452511.32-18.25n25.2--
12:13 AM493321.16-9.56nw12.17--
High: 58ºf @1:13 PM    Low: 47ºf @3:13 PM     Approx. Precipitation / Rain Total: in.
Time (PST)Temp. (ºf)Humidity (%)Dew Point (ºf)Barometer (inHG)Wind Speed (mph)Wind DirectionWind Gust (mph)1hr. Precip / Rain Total (in.)Snow Depth
11:13 PM474325.68-3.48n5.21--
10:13 PM474426.23-3.48se5.21--
9:13 PM474325.68-1.74s4.34--
8:13 PM474426.23-3.48sse9.56--
5:13 PM495633.99-5.21wsw9.56--
3:13 PM476234.66-5.21ssw12.17--
2:13 PM563830.76-8.69n15.64--
1:13 PM582522.39-12.17nne26.07--
12:13 PM572723.36-16.51n23.46--
11:13 AM572824.23-15.64nnw25.2--
10:13 AM552721.64-13.9n23.46--
8:13 AM512819.06-16.51n21.72--
7:13 AM492817.33-16.51nnw20.86--
6:13 AM512415.5-13.9nnw18.25--
5:13 AM532316.21-13.03nnw15.64--
4:13 AM551812.29-7.82nnw13.03--
3:13 AM561711.82-9.56nnw10.43--
1:13 AM543023.28-0.87nne6.95--
High: 63ºf @2:13 PM    Low: 52ºf @7:13 AM     Approx. Precipitation / Rain Total: in.
Time (PST)Temp. (ºf)Humidity (%)Dew Point (ºf)Barometer (inHG)Wind Speed (mph)Wind DirectionWind Gust (mph)1hr. Precip / Rain Total (in.)Snow Depth
11:13 PM561813.11-4.34ne8.69--
10:13 PM561914.34-6.95nnw10.43--
9:13 PM571712.64-7.82n13.03--
8:13 PM562015.51-7.82n10.43--
7:13 PM552216.87-6.95n9.56--
6:13 PM562318.74-8.69n13.03--
5:13 PM572117.47-11.3n16.51--
4:13 PM601917.63-13.9n19.99--
2:13 PM631920.1-15.64n20.86--
1:13 PM632021.31-16.51n23.46--
12:13 PM612120.79-18.25n26.94--
11:13 AM602221.05-19.99n26.94--
10:13 AM582421.42-19.99n26.94--
9:13 AM572521.54-19.99n26.07--
7:13 AM522819.92-18.25n23.46--
5:13 AM522819.92-17.38n22.59--
4:13 AM532820.78-15.64n19.99--
3:13 AM532820.78-15.64n20.86--
12:13 AM532921.61-16.51nnw22.59--
High: 63ºf @1:13 PM    Low: 54ºf @11:13 PM     Approx. Precipitation / Rain Total: in.
Time (PST)Temp. (ºf)Humidity (%)Dew Point (ºf)Barometer (inHG)Wind Speed (mph)Wind DirectionWind Gust (mph)1hr. Precip / Rain Total (in.)Snow Depth
11:13 PM542821.64-16.51n21.72--
10:13 PM552923.34-16.51n21.72--
9:13 PM562823.36-17.38nnw21.72--
8:13 PM562924.2-12.17nnw14.77--
7:13 PM572622.46-8.69nnw10.43--
6:13 PM563226.57-6.08nnw7.82--
5:13 PM553829.86-1.74nne4.34--
4:13 PM593531.39-1.74se5.21--
3:13 PM593329.94-3.48ese6.08--
2:13 PM623231.8-3.48se6.95--
1:13 PM632425.64-4.34s7.82--
12:13 PM622626.73-5.21ssw8.69--
11:13 AM632223.56-5.21ssw7.82--
10:13 AM602322.1-5.21s6.95--
7:13 AM591916.81-4.34sse6.95--
6:13 AM591815.57-4.34s7.82--
5:13 AM582017.17-4.34s6.95--
4:13 AM582320.42-4.34sse8.69--
3:13 AM552721.64-6.08ssw11.3--
High: 72ºf @2:13 PM    Low: 52ºf @11:13 PM     Approx. Precipitation / Rain Total: in.
Time (PST)Temp. (ºf)Humidity (%)Dew Point (ºf)Barometer (inHG)Wind Speed (mph)Wind DirectionWind Gust (mph)1hr. Precip / Rain Total (in.)Snow Depth
11:13 PM522819.92-6.95s12.17--
10:13 PM542317.05-9.56ssw11.3--
9:13 PM562419.73-5.21s8.69--
6:13 PM602018.82-5.21s10.43--
3:13 PM671416.24-5.21ssw7.82--
2:13 PM721318.47-4.34sse10.43--
10:13 AM641819.65-7.82n13.9--
9:13 AM612019.65-9.56n14.77--
8:13 AM572218.54-10.43n13.9--
5:13 AM532518.14-13.03n19.99--
4:13 AM532316.21-13.9n18.25--
3:13 AM562116.63-12.17nnw17.38--
2:13 AM552216.87-13.9nnw19.12--
12:13 AM552216.87-15.64nnw19.12--
High: 62ºf @1:13 PM    Low: 48ºf @1:13 AM     Approx. Precipitation / Rain Total: in.
Time (PST)Temp. (ºf)Humidity (%)Dew Point (ºf)Barometer (inHG)Wind Speed (mph)Wind DirectionWind Gust (mph)1hr. Precip / Rain Total (in.)Snow Depth
11:13 PM572117.47-13.9nnw17.38--
10:13 PM562318.74-12.17n18.25--
9:13 PM562217.71-13.03n19.12--
8:13 PM562318.74-14.77nnw19.12--
7:13 PM562621.61-13.03n18.25--
6:13 PM552923.34-13.03n18.25--
5:13 PM562924.2-13.9n21.72--
4:13 PM592725.07-15.64n20.86--
1:13 PM622525.78-15.64n19.99--
12:13 PM612625.87-15.64n21.72--
11:13 AM612726.78-14.77n20.86--
10:13 AM603028.48-15.64n20.86--
9:13 AM573328.19-14.77n19.12--
8:13 AM603934.97-2.61nnw6.08--
7:13 AM544633.69-5.21sse7.82--
4:13 AM535135.36-5.21s7.82--
3:13 AM524933.44-5.21sse11.3--
2:13 AM524531.32-6.08s10.43--
1:13 AM484628.22-7.82ssw10.43--
12:13 AM493824.51-7.82ssw11.3--
High: 62ºf @12:13 PM    Low: 45ºf @5:13 AM     Approx. Precipitation / Rain Total: in.
Time (PST)Temp. (ºf)Humidity (%)Dew Point (ºf)Barometer (inHG)Wind Speed (mph)Wind DirectionWind Gust (mph)1hr. Precip / Rain Total (in.)Snow Depth
8:13 PM535838.62-6.08s10.43--
7:13 PM515635.86-6.08s10.43--
6:13 PM525033.94-6.08sse10.43--
5:13 PM494729.66-6.95ssw12.17--
3:13 PM523122.31-6.08sw11.3--
2:13 PM562722.5-6.08sse10.43--
1:13 PM562318.74-6.08s10.43--
12:13 PM622222.73-5.21s9.56--
11:13 AM582320.42-6.95sse8.69--
10:13 AM612322.94-2.61sse7.82--
9:13 AM592523.23-2.61se5.21--
8:13 AM572218.54-3.48se8.69--
5:13 AM453216.94-6.95ssw9.56--
4:13 AM51166.42-6.08sse9.56--
3:13 AM5211-0.85-5.21s8.69--
1:13 AM482917.28-6.08s10.43--
High: 54ºf @11:13 AM    Low: 44ºf @11:13 PM     Approx. Precipitation / Rain Total: in.
Time (PST)Temp. (ºf)Humidity (%)Dew Point (ºf)Barometer (inHG)Wind Speed (mph)Wind DirectionWind Gust (mph)1hr. Precip / Rain Total (in.)Snow Depth
11:13 PM443316.77-7.82ssw9.56--
10:13 PM453216.94-6.08s9.56--
8:13 PM472412.1-5.21s7.82--
7:13 PM472311.15-6.08s7.82--
6:13 PM47196.91-6.08s9.56--
4:13 PM512718.21-3.48ssw6.95--
3:13 PM522618.19-2.61s5.21--
2:13 PM532417.19-2.61ssw6.08--
1:13 PM522517.28-5.21ssw9.56--
12:13 PM532518.14-6.08ssw8.69--
11:13 AM542418.04-4.34s7.82--
10:13 AM532215.19-4.34se6.95--
9:13 AM532114.13-4.34nne6.08--
8:13 AM502212.67-2.61ne7.82--
7:13 AM472412.1-6.08nne10.43--
6:13 AM452612.2-6.95n9.56--
5:13 AM462713.92-5.21nne6.95--
4:13 AM442913.81-6.08n9.56--
3:13 AM443014.58-7.82n11.3--
1:13 AM443115.33-12.17-16.51--
12:13 AM443216.06-12.17n17.38--
High: 45ºf @7:13 PM    Low: 40ºf @2:13 AM     Approx. Precipitation / Rain Total: in.
Time (PST)Temp. (ºf)Humidity (%)Dew Point (ºf)Barometer (inHG)Wind Speed (mph)Wind DirectionWind Gust (mph)1hr. Precip / Rain Total (in.)Snow Depth
11:13 PM443316.77-12.17n17.38--
10:13 PM453317.65-12.17n16.51--
8:13 PM453418.34-10.43n14.77--
7:13 PM453317.65-12.17n18.25--
6:13 AM423214.3-12.17n17.38--
5:13 AM413515.47-13.03n19.99--
4:13 AM413716.75-13.9n18.25--
3:13 AM413414.81-11.3n18.25--
2:13 AM403917.06-10.43n13.9--
12:13 AM433114.46-5.21ssw8.69--
High: 57ºf @2:13 PM    Low: 36ºf @8:13 PM     Approx. Precipitation / Rain Total: in.
Time (PST)Temp. (ºf)Humidity (%)Dew Point (ºf)Barometer (inHG)Wind Speed (mph)Wind DirectionWind Gust (mph)1hr. Precip / Rain Total (in.)Snow Depth
11:13 PM433718.53-5.21s9.56--
10:13 PM405022.88-6.95se13.03--
9:13 PM377830.79-4.34ssw10.43--
8:13 PM368231.05-7.82ssw12.17--
6:13 PM377730.47-7.82ssw12.17--
5:13 PM406930.66-6.08ssw13.03--
4:13 PM427133.29-5.21ssw13.9--
3:13 PM442913.81-8.69ssw11.3--
2:13 PM572521.54-6.08se10.43--
1:13 PM552317.9-7.82se11.3--
11:13 AM542518.99-5.21nne8.69--
10:13 AM522719.07-5.21nne9.56--
9:13 AM492615.63-4.34ne12.17--
8:13 AM442813.02-7.82n13.03--
7:13 AM413112.71-8.69nne12.17--
5:13 AM403111.83-8.69n14.77--
4:13 AM413011.97-8.69n13.9--
3:13 AM412810.42-7.82n13.03--
2:13 AM412810.42-10.43n12.17--
1:13 AM40289.56-7.82n11.3--
12:13 AM403011.1-9.56n13.9--
High: 49ºf @2:13 PM    Low: 33ºf @4:13 AM     Approx. Precipitation / Rain Total: in.
Time (PST)Temp. (ºf)Humidity (%)Dew Point (ºf)Barometer (inHG)Wind Speed (mph)Wind DirectionWind Gust (mph)1hr. Precip / Rain Total (in.)Snow Depth
11:13 PM412810.42-9.56n14.77--
9:13 PM423012.84-10.43n14.77--
8:13 PM413817.36-9.56n13.9--
6:13 PM413414.81-6.08nnw13.03--
4:13 PM472613.92-11.3n16.51--
3:13 PM492918.15-13.03n16.51--
2:13 PM493421.87-12.17n14.77--
1:13 PM494226.92-12.17n14.77--
12:13 PM494327.49-10.43n13.9--
9:13 AM4210042-3.48n6.08--
7:13 AM3510035-5.21s8.69--
6:13 AM3410034-6.08ssw9.56--
5:13 AM3410034-6.08s10.43--
4:13 AM3310033-6.95ssw11.3--
2:13 AM3710037-6.95ssw8.69--
1:13 AM3810038-6.08ssw9.56--
12:13 AM389135.61-6.95ssw11.3--
High: 56ºf @11:13 AM    Low: 37ºf @7:13 AM     Approx. Precipitation / Rain Total: in.
Time (PST)Temp. (ºf)Humidity (%)Dew Point (ºf)Barometer (inHG)Wind Speed (mph)Wind DirectionWind Gust (mph)1hr. Precip / Rain Total (in.)Snow Depth
11:13 PM409137.59-6.08ssw9.56--
10:13 PM408134.65-6.08ssw13.03--
9:13 PM426731.85-6.08s10.43--
8:13 PM396126.71-7.82ssw17.38--
6:13 PM386928.75-12.17ssw19.12--
4:13 PM454625.48-6.08s13.9--
3:13 PM455228.45-6.95ssw13.9--
1:13 PM483320.29-6.95sw10.43--
12:13 PM56124.14-5.21sse10.43--
11:13 AM56135.88-5.21s9.56--
9:13 AM51189.01-5.21sse12.17--
8:13 AM453116.21-6.08se10.43--
7:13 AM376425.97-6.08s15.64--
5:13 AM45172.85-5.21ssw6.08--
4:13 AM47196.91-4.34sse6.08--
3:13 AM47196.91-3.48s5.21--
2:13 AM48208.87-1.74nne5.21--
1:13 AM482210.99-4.34nnw7.82--
High: 56ºf @11:13 AM    Low: 40ºf @1:13 AM     Approx. Precipitation / Rain Total: in.
Time (PST)Temp. (ºf)Humidity (%)Dew Point (ºf)Barometer (inHG)Wind Speed (mph)Wind DirectionWind Gust (mph)1hr. Precip / Rain Total (in.)Snow Depth
10:13 PM472311.15-2.61n6.08--
9:13 PM452813.88-0.87n4.34--
8:13 PM482412.95---1.74--
7:13 PM492312.84-1.74se2.61--
6:13 PM502515.58-2.61se3.48--
5:13 PM502212.67-3.48sw4.34--
4:13 PM512718.21-1.74wnw6.08--
3:13 PM522416.34-5.21sw7.82--
2:13 PM543023.28-5.21wsw6.95--
12:13 PM552216.87-5.21n12.17--
11:13 AM562116.63-9.56n13.03--
10:13 AM532518.14-8.69n11.3--
9:13 AM492817.33-5.21n8.69--
8:13 AM492110.79-5.21sse8.69--
6:13 AM432912.94-5.21ssw12.17--
3:13 AM404620.91-5.21ssw8.69--
2:13 AM404520.39-6.95s8.69--
1:13 AM406127.65-6.95ssw10.43--
12:13 AM43248.71-6.95ssw10.43--
High: 59ºf @11:13 AM    Low: 41ºf @6:13 PM     Approx. Precipitation / Rain Total: in.
Time (PST)Temp. (ºf)Humidity (%)Dew Point (ºf)Barometer (inHG)Wind Speed (mph)Wind DirectionWind Gust (mph)1hr. Precip / Rain Total (in.)Snow Depth
11:13 PM4612-3.72-6.95ssw10.43--
10:13 PM47151.79-6.08s10.43--
9:13 PM462713.92-5.21s12.17--
7:13 PM424924.24-5.21s8.69--
6:13 PM416228.99-6.95s13.9--
5:13 PM434824.67-9.56ssw13.03--
4:13 PM454122.73-6.08ssw10.43--
3:13 PM49209.7-7.82s12.17--
2:13 PM55158.22-6.95ssw10.43--
1:13 PM56124.14-6.95ssw10.43--
12:13 PM58137.46-4.34s7.82--
11:13 AM591815.57-3.48ne11.3--
10:13 AM542317.05-7.82n14.77--
9:13 AM512314.52-12.17n14.77--
7:13 AM462814.74-11.3n20.86--
6:13 AM463117.08-13.03n19.99--
5:13 AM453619.67-15.64n21.72--
4:13 AM453619.67-14.77n21.72--
3:13 AM453921.55-16.51n22.59--
2:13 AM463922.45-15.64n23.46--
1:13 AM473822.73-17.38n23.46--
12:13 AM473621.45-16.51n20.86--
High: 50ºf @1:13 PM    Low: 37ºf @9:13 AM     Approx. Precipitation / Rain Total: in.
Time (PST)Temp. (ºf)Humidity (%)Dew Point (ºf)Barometer (inHG)Wind Speed (mph)Wind DirectionWind Gust (mph)1hr. Precip / Rain Total (in.)Snow Depth
10:13 PM454223.3-12.17n15.64--
9:13 PM454424.41-12.17nnw14.77--
8:13 PM454625.48-9.56nnw13.9--
7:13 PM472613.92-9.56nnw12.17--
6:13 PM49130.33-3.48nw6.08--
4:13 PM406830.3-5.21s6.08--
3:13 PM485733.5-5.21ssw6.95--
2:13 PM507040.61-5.21ssw6.95--
1:13 PM508445.36-3.48n6.08--
12:13 PM4210042-5.21nne7.82--
11:13 AM4310043-3.48nne7.82--
10:13 AM4010040-6.95sw10.43--
9:13 AM3710037-6.95sw10.43--
8:13 AM3810038-6.95s8.69--
7:13 AM3810038-5.21s8.69--
6:13 AM3810038-6.95ssw13.03--
5:13 AM3810038-10.43sw13.03--
4:13 AM3910039-7.82ssw9.56--
3:13 AM4010040-3.48sse7.82--
High: 55ºf @11:13 AM    Low: 42ºf @11:13 PM     Approx. Precipitation / Rain Total: in.
Time (PST)Temp. (ºf)Humidity (%)Dew Point (ºf)Barometer (inHG)Wind Speed (mph)Wind DirectionWind Gust (mph)1hr. Precip / Rain Total (in.)Snow Depth
11:13 PM4210042-8.69ssw12.17--
10:13 PM4310043-6.95ssw10.43--
9:13 PM4410044-7.82ssw13.03--
8:13 PM4310043-8.69ssw13.03--
6:13 PM449642.93-6.95ssw13.03--
5:13 PM458941.96-6.08s12.17--
4:13 PM458540.77-5.21s9.56--
3:13 PM458239.84-7.82ssw13.9--
2:13 PM477539.49-9.56ssw15.64--
1:13 PM496035.73-7.82ssw13.03--
12:13 PM506337.91-6.08ssw10.43--
11:13 AM554031.13-3.48ssw10.43--
9:13 AM495232.15-5.21ssw6.95--
8:13 AM484527.68-4.34s7.82--
6:13 AM445227.52-4.34s9.56--
5:13 AM445026.57-6.95sse8.69--
2:13 AM503624.11-3.48nnw6.95--
1:13 AM483521.67-1.74nnw4.34--
12:13 AM493321.16-0.87nnw5.21--
High: 51ºf @11:13 PM    Low: 45ºf @8:13 PM     Approx. Precipitation / Rain Total: in.
Time (PST)Temp. (ºf)Humidity (%)Dew Point (ºf)Barometer (inHG)Wind Speed (mph)Wind DirectionWind Gust (mph)1hr. Precip / Rain Total (in.)Snow Depth
11:13 PM513020.67-4.34sse6.08--
10:13 PM474627.31-4.34se7.82--
9:13 PM484024.84-5.21sse6.95--
8:13 PM456031.96-1.74wnw4.34--
6:13 PM467638.87-4.34wsw5.21--
Past Weather Disclaimer Note regarding "Approx. Precipitation / Rain Total"

Currently

Overcast 36°F
29.96in
Barometer
82%
Humidity
South 17.3mph
Wind
Overcast

Past Weather Nearby

More Local Information

Bookmark and Share

Go Ad Free - Become a Member